sensor_id;sensor_type;location;lat;lon;timestamp;P1;durP1;ratioP1;P2;durP2;ratioP2
65753;SDS011;52488;47.502;18.940;2023-02-12T00:00:44;22.50;;;11.70;;
65753;SDS011;52488;47.502;18.940;2023-02-12T00:01:47;22.95;;;11.18;;
65753;SDS011;52488;47.502;18.940;2023-02-12T00:02:50;20.45;;;11.32;;
65753;SDS011;52488;47.502;18.940;2023-02-12T00:03:54;21.23;;;11.27;;
65753;SDS011;52488;47.502;18.940;2023-02-12T00:04:57;21.55;;;11.12;;
65753;SDS011;52488;47.502;18.940;2023-02-12T00:06:00;25.08;;;12.75;;
65753;SDS011;52488;47.502;18.940;2023-02-12T00:07:03;20.65;;;10.70;;
65753;SDS011;52488;47.502;18.940;2023-02-12T00:08:07;26.05;;;12.73;;
65753;SDS011;52488;47.502;18.940;2023-02-12T00:09:12;23.25;;;12.23;;
65753;SDS011;52488;47.502;18.940;2023-02-12T00:10:15;21.90;;;11.07;;
65753;SDS011;52488;47.502;18.940;2023-02-12T00:11:20;24.08;;;11.52;;
65753;SDS011;52488;47.502;18.940;2023-02-12T00:12:26;24.48;;;11.25;;
65753;SDS011;52488;47.502;18.940;2023-02-12T00:13:29;21.37;;;12.18;;
65753;SDS011;52488;47.502;18.940;2023-02-12T00:14:33;20.98;;;11.27;;
65753;SDS011;52488;47.502;18.940;2023-02-12T00:15:42;25.77;;;12.02;;
65753;SDS011;52488;47.502;18.940;2023-02-12T00:16:45;22.87;;;11.73;;
65753;SDS011;52488;47.502;18.940;2023-02-12T00:17:48;25.02;;;12.57;;
65753;SDS011;52488;47.502;18.940;2023-02-12T00:18:52;21.70;;;11.75;;
65753;SDS011;52488;47.502;18.940;2023-02-12T00:19:57;24.35;;;12.13;;
65753;SDS011;52488;47.502;18.940;2023-02-12T00:21:00;22.35;;;11.82;;
65753;SDS011;52488;47.502;18.940;2023-02-12T00:22:04;21.58;;;11.60;;
65753;SDS011;52488;47.502;18.940;2023-02-12T00:23:07;21.98;;;11.60;;
65753;SDS011;52488;47.502;18.940;2023-02-12T00:24:11;26.20;;;12.00;;
65753;SDS011;52488;47.502;18.940;2023-02-12T00:25:14;22.35;;;11.90;;
65753;SDS011;52488;47.502;18.940;2023-02-12T00:26:19;22.50;;;11.65;;
65753;SDS011;52488;47.502;18.940;2023-02-12T00:27:23;25.08;;;12.45;;
65753;SDS011;52488;47.502;18.940;2023-02-12T00:28:27;26.48;;;12.90;;
65753;SDS011;52488;47.502;18.940;2023-02-12T00:29:31;24.90;;;12.23;;
65753;SDS011;52488;47.502;18.940;2023-02-12T00:30:34;26.35;;;13.05;;
65753;SDS011;52488;47.502;18.940;2023-02-12T00:31:38;24.42;;;12.60;;
65753;SDS011;52488;47.502;18.940;2023-02-12T00:32:41;27.37;;;13.15;;
65753;SDS011;52488;47.502;18.940;2023-02-12T00:33:44;23.48;;;11.93;;
65753;SDS011;52488;47.502;18.940;2023-02-12T00:34:47;23.67;;;12.20;;
65753;SDS011;52488;47.502;18.940;2023-02-12T00:35:57;23.65;;;11.77;;
65753;SDS011;52488;47.502;18.940;2023-02-12T00:37:00;24.48;;;12.20;;
65753;SDS011;52488;47.502;18.940;2023-02-12T00:38:03;25.05;;;12.63;;
65753;SDS011;52488;47.502;18.940;2023-02-12T00:39:06;20.95;;;11.68;;
65753;SDS011;52488;47.502;18.940;2023-02-12T00:40:09;23.98;;;12.50;;
65753;SDS011;52488;47.502;18.940;2023-02-12T00:41:12;22.95;;;11.35;;
65753;SDS011;52488;47.502;18.940;2023-02-12T00:42:15;22.50;;;11.88;;
65753;SDS011;52488;47.502;18.940;2023-02-12T00:43:19;23.35;;;12.80;;
65753;SDS011;52488;47.502;18.940;2023-02-12T00:44:22;25.65;;;12.52;;
65753;SDS011;52488;47.502;18.940;2023-02-12T00:45:25;22.55;;;12.45;;
65753;SDS011;52488;47.502;18.940;2023-02-12T00:46:28;27.50;;;13.00;;
65753;SDS011;52488;47.502;18.940;2023-02-12T00:47:31;23.52;;;12.32;;
65753;SDS011;52488;47.502;18.940;2023-02-12T00:48:34;24.30;;;11.70;;
65753;SDS011;52488;47.502;18.940;2023-02-12T00:49:38;20.92;;;10.00;;
65753;SDS011;52488;47.502;18.940;2023-02-12T00:50:45;27.20;;;13.40;;
65753;SDS011;52488;47.502;18.940;2023-02-12T00:51:50;24.48;;;12.65;;
65753;SDS011;52488;47.502;18.940;2023-02-12T00:52:53;23.75;;;12.63;;
65753;SDS011;52488;47.502;18.940;2023-02-12T00:53:56;27.27;;;12.50;;
65753;SDS011;52488;47.502;18.940;2023-02-12T00:54:59;21.73;;;11.77;;
65753;SDS011;52488;47.502;18.940;2023-02-12T00:56:02;24.65;;;12.07;;
65753;SDS011;52488;47.502;18.940;2023-02-12T00:57:06;22.23;;;11.75;;
65753;SDS011;52488;47.502;18.940;2023-02-12T00:58:09;22.23;;;12.23;;
65753;SDS011;52488;47.502;18.940;2023-02-12T00:59:13;21.42;;;10.88;;
65753;SDS011;52488;47.502;18.940;2023-02-12T01:00:17;20.23;;;11.45;;
65753;SDS011;52488;47.502;18.940;2023-02-12T01:01:20;22.48;;;12.32;;
65753;SDS011;52488;47.502;18.940;2023-02-12T01:02:23;26.12;;;12.90;;
65753;SDS011;52488;47.502;18.940;2023-02-12T01:03:27;22.13;;;11.70;;
65753;SDS011;52488;47.502;18.940;2023-02-12T01:04:30;21.50;;;11.80;;
65753;SDS011;52488;47.502;18.940;2023-02-12T01:05:34;25.20;;;12.60;;
65753;SDS011;52488;47.502;18.940;2023-02-12T01:06:38;20.35;;;11.88;;
65753;SDS011;52488;47.502;18.940;2023-02-12T01:07:42;25.20;;;12.65;;
65753;SDS011;52488;47.502;18.940;2023-02-12T01:08:45;23.33;;;13.05;;
65753;SDS011;52488;47.502;18.940;2023-02-12T01:09:48;27.73;;;12.65;;
65753;SDS011;52488;47.502;18.940;2023-02-12T01:11:01;26.17;;;13.05;;
65753;SDS011;52488;47.502;18.940;2023-02-12T01:12:06;23.80;;;12.23;;
65753;SDS011;52488;47.502;18.940;2023-02-12T01:13:13;21.48;;;11.25;;
65753;SDS011;52488;47.502;18.940;2023-02-12T01:14:17;21.37;;;12.00;;
65753;SDS011;52488;47.502;18.940;2023-02-12T01:15:20;25.75;;;12.63;;
65753;SDS011;52488;47.502;18.940;2023-02-12T01:16:24;23.38;;;13.07;;
65753;SDS011;52488;47.502;18.940;2023-02-12T01:17:27;21.73;;;11.98;;
65753;SDS011;52488;47.502;18.940;2023-02-12T01:18:30;23.62;;;12.35;;
65753;SDS011;52488;47.502;18.940;2023-02-12T01:19:33;21.40;;;11.18;;
65753;SDS011;52488;47.502;18.940;2023-02-12T01:20:38;25.35;;;12.27;;
65753;SDS011;52488;47.502;18.940;2023-02-12T01:21:41;22.95;;;12.43;;
65753;SDS011;52488;47.502;18.940;2023-02-12T01:22:44;23.38;;;12.85;;
65753;SDS011;52488;47.502;18.940;2023-02-12T01:23:47;22.48;;;12.20;;
65753;SDS011;52488;47.502;18.940;2023-02-12T01:24:50;23.12;;;12.32;;
65753;SDS011;52488;47.502;18.940;2023-02-12T01:25:54;24.42;;;13.00;;
65753;SDS011;52488;47.502;18.940;2023-02-12T01:26:57;23.62;;;12.75;;
65753;SDS011;52488;47.502;18.940;2023-02-12T01:28:00;21.75;;;11.90;;
65753;SDS011;52488;47.502;18.940;2023-02-12T01:29:04;23.38;;;13.00;;
65753;SDS011;52488;47.502;18.940;2023-02-12T01:30:10;23.67;;;12.48;;
65753;SDS011;52488;47.502;18.940;2023-02-12T01:31:16;20.25;;;11.77;;
65753;SDS011;52488;47.502;18.940;2023-02-12T01:32:22;21.25;;;11.90;;
65753;SDS011;52488;47.502;18.940;2023-02-12T01:33:25;25.25;;;12.75;;
65753;SDS011;52488;47.502;18.940;2023-02-12T01:34:28;23.10;;;12.10;;
65753;SDS011;52488;47.502;18.940;2023-02-12T01:35:32;23.00;;;12.10;;
65753;SDS011;52488;47.502;18.940;2023-02-12T01:36:35;22.48;;;11.82;;
65753;SDS011;52488;47.502;18.940;2023-02-12T01:37:38;21.40;;;11.98;;
65753;SDS011;52488;47.502;18.940;2023-02-12T01:38:41;19.90;;;11.85;;
65753;SDS011;52488;47.502;18.940;2023-02-12T01:39:44;25.60;;;12.15;;
65753;SDS011;52488;47.502;18.940;2023-02-12T01:40:47;21.30;;;11.27;;
65753;SDS011;52488;47.502;18.940;2023-02-12T01:41:50;19.00;;;10.35;;
65753;SDS011;52488;47.502;18.940;2023-02-12T01:42:53;24.30;;;12.48;;
65753;SDS011;52488;47.502;18.940;2023-02-12T01:44:11;24.37;;;13.40;;
65753;SDS011;52488;47.502;18.940;2023-02-12T01:46:17;28.80;;;13.20;;
65753;SDS011;52488;47.502;18.940;2023-02-12T01:47:20;29.67;;;12.65;;
65753;SDS011;52488;47.502;18.940;2023-02-12T01:48:24;24.02;;;13.43;;
65753;SDS011;52488;47.502;18.940;2023-02-12T01:50:43;24.50;;;13.35;;
65753;SDS011;52488;47.502;18.940;2023-02-12T01:51:53;23.15;;;12.45;;
65753;SDS011;52488;47.502;18.940;2023-02-12T01:53:00;23.67;;;12.43;;
65753;SDS011;52488;47.502;18.940;2023-02-12T01:54:05;19.70;;;11.85;;
65753;SDS011;52488;47.502;18.940;2023-02-12T01:55:10;23.38;;;12.13;;
65753;SDS011;52488;47.502;18.940;2023-02-12T01:56:14;26.55;;;13.60;;
65753;SDS011;52488;47.502;18.940;2023-02-12T01:57:19;22.00;;;11.93;;
65753;SDS011;52488;47.502;18.940;2023-02-12T01:58:23;24.27;;;13.07;;
65753;SDS011;52488;47.502;18.940;2023-02-12T01:59:28;25.42;;;11.95;;
65753;SDS011;52488;47.502;18.940;2023-02-12T02:00:32;22.45;;;12.48;;
65753;SDS011;52488;47.502;18.940;2023-02-12T02:01:35;25.52;;;13.45;;
65753;SDS011;52488;47.502;18.940;2023-02-12T02:02:39;24.17;;;11.85;;
65753;SDS011;52488;47.502;18.940;2023-02-12T02:03:49;24.77;;;12.27;;
65753;SDS011;52488;47.502;18.940;2023-02-12T02:04:57;23.02;;;12.20;;
65753;SDS011;52488;47.502;18.940;2023-02-12T02:07:41;21.58;;;12.25;;
65753;SDS011;52488;47.502;18.940;2023-02-12T02:08:45;24.42;;;12.55;;
65753;SDS011;52488;47.502;18.940;2023-02-12T02:09:49;21.37;;;11.23;;
65753;SDS011;52488;47.502;18.940;2023-02-12T02:10:53;22.50;;;12.25;;
65753;SDS011;52488;47.502;18.940;2023-02-12T02:11:56;21.15;;;11.75;;
65753;SDS011;52488;47.502;18.940;2023-02-12T02:13:18;23.38;;;11.93;;
65753;SDS011;52488;47.502;18.940;2023-02-12T02:15:44;20.00;;;11.30;;
65753;SDS011;52488;47.502;18.940;2023-02-12T02:16:56;20.15;;;10.55;;
65753;SDS011;52488;47.502;18.940;2023-02-12T02:18:22;21.20;;;10.98;;
65753;SDS011;52488;47.502;18.940;2023-02-12T02:22:30;21.73;;;11.52;;
65753;SDS011;52488;47.502;18.940;2023-02-12T02:31:40;18.03;;;9.23;;
65753;SDS011;52488;47.502;18.940;2023-02-12T02:34:17;19.62;;;10.52;;
65753;SDS011;52488;47.502;18.940;2023-02-12T02:35:31;22.27;;;11.35;;
65753;SDS011;52488;47.502;18.940;2023-02-12T02:36:44;22.55;;;11.55;;
65753;SDS011;52488;47.502;18.940;2023-02-12T02:38:06;22.90;;;12.20;;
65753;SDS011;52488;47.502;18.940;2023-02-12T02:39:36;23.33;;;12.65;;
65753;SDS011;52488;47.502;18.940;2023-02-12T02:41:57;19.50;;;11.27;;
65753;SDS011;52488;47.502;18.940;2023-02-12T02:43:13;19.80;;;11.10;;
65753;SDS011;52488;47.502;18.940;2023-02-12T02:44:23;21.27;;;10.88;;
65753;SDS011;52488;47.502;18.940;2023-02-12T02:45:48;22.45;;;11.95;;
65753;SDS011;52488;47.502;18.940;2023-02-12T02:46:57;18.27;;;10.38;;
65753;SDS011;52488;47.502;18.940;2023-02-12T02:48:05;22.65;;;11.80;;
65753;SDS011;52488;47.502;18.940;2023-02-12T02:49:24;21.55;;;11.43;;
65753;SDS011;52488;47.502;18.940;2023-02-12T02:50:33;22.77;;;11.73;;
65753;SDS011;52488;47.502;18.940;2023-02-12T02:51:41;20.70;;;11.88;;
65753;SDS011;52488;47.502;18.940;2023-02-12T02:52:48;20.62;;;11.38;;
65753;SDS011;52488;47.502;18.940;2023-02-12T02:54:06;18.62;;;10.75;;
65753;SDS011;52488;47.502;18.940;2023-02-12T02:55:16;18.70;;;10.00;;
65753;SDS011;52488;47.502;18.940;2023-02-12T02:56:22;19.20;;;10.07;;
65753;SDS011;52488;47.502;18.940;2023-02-12T02:57:38;19.73;;;11.12;;
65753;SDS011;52488;47.502;18.940;2023-02-12T02:58:52;21.00;;;11.27;;
65753;SDS011;52488;47.502;18.940;2023-02-12T03:00:04;23.52;;;12.05;;
65753;SDS011;52488;47.502;18.940;2023-02-12T03:01:19;23.30;;;11.90;;
65753;SDS011;52488;47.502;18.940;2023-02-12T03:02:28;24.65;;;12.68;;
65753;SDS011;52488;47.502;18.940;2023-02-12T03:03:43;21.10;;;10.85;;
65753;SDS011;52488;47.502;18.940;2023-02-12T03:04:54;26.58;;;11.57;;
65753;SDS011;52488;47.502;18.940;2023-02-12T03:06:06;23.77;;;11.73;;
65753;SDS011;52488;47.502;18.940;2023-02-12T03:07:35;18.52;;;10.43;;
65753;SDS011;52488;47.502;18.940;2023-02-12T03:08:55;20.37;;;11.02;;
65753;SDS011;52488;47.502;18.940;2023-02-12T03:10:13;20.02;;;11.18;;
65753;SDS011;52488;47.502;18.940;2023-02-12T03:11:24;22.02;;;12.10;;
65753;SDS011;52488;47.502;18.940;2023-02-12T03:13:42;23.58;;;11.82;;
65753;SDS011;52488;47.502;18.940;2023-02-12T03:14:53;22.37;;;12.05;;
65753;SDS011;52488;47.502;18.940;2023-02-12T03:16:11;22.58;;;12.13;;
65753;SDS011;52488;47.502;18.940;2023-02-12T03:17:27;20.92;;;11.90;;
65753;SDS011;52488;47.502;18.940;2023-02-12T03:18:41;21.42;;;11.65;;
65753;SDS011;52488;47.502;18.940;2023-02-12T03:19:57;19.60;;;11.38;;
65753;SDS011;52488;47.502;18.940;2023-02-12T03:21:09;23.48;;;11.88;;
65753;SDS011;52488;47.502;18.940;2023-02-12T03:22:17;21.73;;;11.63;;
65753;SDS011;52488;47.502;18.940;2023-02-12T03:23:39;20.98;;;11.80;;
65753;SDS011;52488;47.502;18.940;2023-02-12T03:25:13;22.40;;;11.38;;
65753;SDS011;52488;47.502;18.940;2023-02-12T03:26:23;19.48;;;10.88;;
65753;SDS011;52488;47.502;18.940;2023-02-12T03:27:37;21.00;;;11.75;;
65753;SDS011;52488;47.502;18.940;2023-02-12T03:28:43;16.58;;;10.00;;
65753;SDS011;52488;47.502;18.940;2023-02-12T03:29:46;18.83;;;11.10;;
65753;SDS011;52488;47.502;18.940;2023-02-12T03:32:03;22.98;;;11.80;;
65753;SDS011;52488;47.502;18.940;2023-02-12T03:33:22;20.60;;;10.43;;
65753;SDS011;52488;47.502;18.940;2023-02-12T03:35:57;20.92;;;11.48;;
65753;SDS011;52488;47.502;18.940;2023-02-12T03:37:11;19.58;;;11.18;;
65753;SDS011;52488;47.502;18.940;2023-02-12T03:38:26;23.73;;;12.23;;
65753;SDS011;52488;47.502;18.940;2023-02-12T03:42:19;21.05;;;10.38;;
65753;SDS011;52488;47.502;18.940;2023-02-12T03:45:03;20.60;;;11.43;;
65753;SDS011;52488;47.502;18.940;2023-02-12T03:47:14;22.17;;;11.55;;
65753;SDS011;52488;47.502;18.940;2023-02-12T03:49:28;20.52;;;10.93;;
65753;SDS011;52488;47.502;18.940;2023-02-12T03:52:16;20.42;;;10.45;;
65753;SDS011;52488;47.502;18.940;2023-02-12T03:53:19;18.65;;;10.57;;
65753;SDS011;52488;47.502;18.940;2023-02-12T03:54:22;22.08;;;12.18;;
65753;SDS011;52488;47.502;18.940;2023-02-12T03:55:26;21.80;;;11.85;;
65753;SDS011;52488;47.502;18.940;2023-02-12T03:56:39;22.75;;;12.30;;
65753;SDS011;52488;47.502;18.940;2023-02-12T03:57:59;19.98;;;11.00;;
65753;SDS011;52488;47.502;18.940;2023-02-12T03:59:05;21.73;;;11.32;;
65753;SDS011;52488;47.502;18.940;2023-02-12T04:00:16;19.95;;;11.98;;
65753;SDS011;52488;47.502;18.940;2023-02-12T04:01:22;20.12;;;11.20;;
65753;SDS011;52488;47.502;18.940;2023-02-12T04:02:25;21.65;;;11.35;;
65753;SDS011;52488;47.502;18.940;2023-02-12T04:03:30;21.17;;;12.07;;
65753;SDS011;52488;47.502;18.940;2023-02-12T04:04:33;21.37;;;11.73;;
65753;SDS011;52488;47.502;18.940;2023-02-12T04:05:36;21.42;;;11.00;;
65753;SDS011;52488;47.502;18.940;2023-02-12T04:06:40;21.95;;;12.00;;
65753;SDS011;52488;47.502;18.940;2023-02-12T04:07:43;21.83;;;11.55;;
65753;SDS011;52488;47.502;18.940;2023-02-12T04:08:46;19.15;;;10.63;;
65753;SDS011;52488;47.502;18.940;2023-02-12T04:09:49;18.60;;;10.98;;
65753;SDS011;52488;47.502;18.940;2023-02-12T04:12:33;22.13;;;11.68;;
65753;SDS011;52488;47.502;18.940;2023-02-12T04:15:34;21.95;;;11.10;;
65753;SDS011;52488;47.502;18.940;2023-02-12T04:18:20;19.30;;;10.65;;
65753;SDS011;52488;47.502;18.940;2023-02-12T04:21:05;19.75;;;10.27;;
65753;SDS011;52488;47.502;18.940;2023-02-12T04:28:40;17.20;;;9.77;;
65753;SDS011;52488;47.502;18.940;2023-02-12T04:31:37;14.93;;;7.68;;
65753;SDS011;52488;47.502;18.940;2023-02-12T04:32:44;14.27;;;9.02;;
65753;SDS011;52488;47.502;18.940;2023-02-12T04:34:13;17.12;;;9.20;;
65753;SDS011;52488;47.502;18.940;2023-02-12T04:35:25;14.25;;;7.93;;
65753;SDS011;52488;47.502;18.940;2023-02-12T04:36:37;18.80;;;9.32;;
65753;SDS011;52488;47.502;18.940;2023-02-12T04:39:14;16.08;;;8.98;;
65753;SDS011;52488;47.502;18.940;2023-02-12T04:40:21;15.93;;;9.15;;
65753;SDS011;52488;47.502;18.940;2023-02-12T04:41:25;16.87;;;9.55;;
65753;SDS011;52488;47.502;18.940;2023-02-12T04:42:28;18.20;;;10.07;;
65753;SDS011;52488;47.502;18.940;2023-02-12T04:43:33;17.02;;;9.38;;
65753;SDS011;52488;47.502;18.940;2023-02-12T04:44:39;18.42;;;9.80;;
65753;SDS011;52488;47.502;18.940;2023-02-12T04:45:44;15.93;;;9.38;;
65753;SDS011;52488;47.502;18.940;2023-02-12T04:46:47;17.73;;;9.70;;
65753;SDS011;52488;47.502;18.940;2023-02-12T04:47:51;17.45;;;10.23;;
65753;SDS011;52488;47.502;18.940;2023-02-12T04:48:57;17.15;;;9.50;;
65753;SDS011;52488;47.502;18.940;2023-02-12T04:50:01;18.92;;;10.07;;
65753;SDS011;52488;47.502;18.940;2023-02-12T04:51:04;14.80;;;8.68;;
65753;SDS011;52488;47.502;18.940;2023-02-12T04:52:07;16.70;;;9.65;;
65753;SDS011;52488;47.502;18.940;2023-02-12T04:53:11;17.17;;;9.55;;
65753;SDS011;52488;47.502;18.940;2023-02-12T04:54:14;18.37;;;10.07;;
65753;SDS011;52488;47.502;18.940;2023-02-12T04:55:18;18.27;;;10.45;;
65753;SDS011;52488;47.502;18.940;2023-02-12T04:56:21;20.48;;;10.05;;
65753;SDS011;52488;47.502;18.940;2023-02-12T04:57:24;17.33;;;9.70;;
65753;SDS011;52488;47.502;18.940;2023-02-12T04:58:27;16.95;;;9.13;;
65753;SDS011;52488;47.502;18.940;2023-02-12T04:59:30;18.87;;;9.68;;
65753;SDS011;52488;47.502;18.940;2023-02-12T05:00:34;18.27;;;9.93;;
65753;SDS011;52488;47.502;18.940;2023-02-12T05:01:37;16.33;;;9.57;;
65753;SDS011;52488;47.502;18.940;2023-02-12T05:02:41;17.27;;;9.95;;
65753;SDS011;52488;47.502;18.940;2023-02-12T05:03:44;16.33;;;9.30;;
65753;SDS011;52488;47.502;18.940;2023-02-12T05:04:48;18.37;;;10.27;;
65753;SDS011;52488;47.502;18.940;2023-02-12T05:05:51;15.80;;;8.98;;
65753;SDS011;52488;47.502;18.940;2023-02-12T05:06:55;21.35;;;10.57;;
65753;SDS011;52488;47.502;18.940;2023-02-12T05:07:58;17.83;;;10.18;;
65753;SDS011;52488;47.502;18.940;2023-02-12T05:09:02;16.08;;;8.68;;
65753;SDS011;52488;47.502;18.940;2023-02-12T05:10:07;16.83;;;9.55;;
65753;SDS011;52488;47.502;18.940;2023-02-12T05:11:11;18.08;;;10.23;;
65753;SDS011;52488;47.502;18.940;2023-02-12T05:12:14;15.95;;;9.00;;
65753;SDS011;52488;47.502;18.940;2023-02-12T05:13:17;16.55;;;10.23;;
65753;SDS011;52488;47.502;18.940;2023-02-12T05:14:22;15.60;;;9.15;;
65753;SDS011;52488;47.502;18.940;2023-02-12T05:15:26;18.87;;;9.70;;
65753;SDS011;52488;47.502;18.940;2023-02-12T05:16:29;17.35;;;9.10;;
65753;SDS011;52488;47.502;18.940;2023-02-12T05:17:32;19.37;;;10.80;;
65753;SDS011;52488;47.502;18.940;2023-02-12T05:18:35;18.02;;;10.35;;
65753;SDS011;52488;47.502;18.940;2023-02-12T05:19:38;18.42;;;9.60;;
65753;SDS011;52488;47.502;18.940;2023-02-12T05:20:41;19.95;;;10.63;;
65753;SDS011;52488;47.502;18.940;2023-02-12T05:21:44;20.92;;;10.32;;
65753;SDS011;52488;47.502;18.940;2023-02-12T05:22:50;17.25;;;10.57;;
65753;SDS011;52488;47.502;18.940;2023-02-12T05:23:54;15.90;;;10.15;;
65753;SDS011;52488;47.502;18.940;2023-02-12T05:24:57;19.87;;;10.27;;
65753;SDS011;52488;47.502;18.940;2023-02-12T05:26:01;19.95;;;11.18;;
65753;SDS011;52488;47.502;18.940;2023-02-12T05:27:06;20.35;;;11.02;;
65753;SDS011;52488;47.502;18.940;2023-02-12T05:28:10;18.83;;;10.30;;
65753;SDS011;52488;47.502;18.940;2023-02-12T05:29:14;15.13;;;9.15;;
65753;SDS011;52488;47.502;18.940;2023-02-12T05:30:17;20.10;;;10.95;;
65753;SDS011;52488;47.502;18.940;2023-02-12T05:31:20;20.70;;;10.98;;
65753;SDS011;52488;47.502;18.940;2023-02-12T05:32:23;15.80;;;9.93;;
65753;SDS011;52488;47.502;18.940;2023-02-12T05:33:27;18.42;;;10.30;;
65753;SDS011;52488;47.502;18.940;2023-02-12T05:34:29;19.73;;;10.40;;
65753;SDS011;52488;47.502;18.940;2023-02-12T05:35:35;19.27;;;10.35;;
65753;SDS011;52488;47.502;18.940;2023-02-12T05:36:39;17.95;;;10.27;;
65753;SDS011;52488;47.502;18.940;2023-02-12T05:37:42;19.48;;;10.30;;
65753;SDS011;52488;47.502;18.940;2023-02-12T05:38:46;17.40;;;9.77;;
65753;SDS011;52488;47.502;18.940;2023-02-12T05:39:49;19.58;;;10.13;;
65753;SDS011;52488;47.502;18.940;2023-02-12T05:40:52;18.90;;;9.15;;
65753;SDS011;52488;47.502;18.940;2023-02-12T05:41:55;17.90;;;10.02;;
65753;SDS011;52488;47.502;18.940;2023-02-12T05:42:58;18.87;;;10.38;;
65753;SDS011;52488;47.502;18.940;2023-02-12T05:44:02;17.85;;;9.93;;
65753;SDS011;52488;47.502;18.940;2023-02-12T05:45:05;17.42;;;9.20;;
65753;SDS011;52488;47.502;18.940;2023-02-12T05:46:09;20.37;;;11.00;;
65753;SDS011;52488;47.502;18.940;2023-02-12T05:47:13;15.88;;;8.95;;
65753;SDS011;52488;47.502;18.940;2023-02-12T05:48:16;15.55;;;9.52;;
65753;SDS011;52488;47.502;18.940;2023-02-12T05:49:19;14.48;;;8.80;;
65753;SDS011;52488;47.502;18.940;2023-02-12T05:50:22;15.77;;;9.40;;
65753;SDS011;52488;47.502;18.940;2023-02-12T05:51:26;16.65;;;8.93;;
65753;SDS011;52488;47.502;18.940;2023-02-12T05:52:29;16.75;;;8.48;;
65753;SDS011;52488;47.502;18.940;2023-02-12T05:53:32;16.55;;;8.07;;
65753;SDS011;52488;47.502;18.940;2023-02-12T05:54:35;16.37;;;9.07;;
65753;SDS011;52488;47.502;18.940;2023-02-12T05:55:38;15.48;;;8.63;;
65753;SDS011;52488;47.502;18.940;2023-02-12T05:56:45;14.13;;;7.65;;
65753;SDS011;52488;47.502;18.940;2023-02-12T05:57:49;17.20;;;9.10;;
65753;SDS011;52488;47.502;18.940;2023-02-12T05:58:56;17.05;;;9.05;;
65753;SDS011;52488;47.502;18.940;2023-02-12T06:00:00;16.05;;;9.43;;
65753;SDS011;52488;47.502;18.940;2023-02-12T06:01:08;15.40;;;8.70;;
65753;SDS011;52488;47.502;18.940;2023-02-12T06:02:21;16.12;;;8.80;;
65753;SDS011;52488;47.502;18.940;2023-02-12T06:03:24;16.00;;;8.85;;
65753;SDS011;52488;47.502;18.940;2023-02-12T06:04:27;15.95;;;8.95;;
65753;SDS011;52488;47.502;18.940;2023-02-12T06:05:30;14.50;;;8.45;;
65753;SDS011;52488;47.502;18.940;2023-02-12T06:06:34;13.68;;;8.75;;
65753;SDS011;52488;47.502;18.940;2023-02-12T06:07:37;14.87;;;9.32;;
65753;SDS011;52488;47.502;18.940;2023-02-12T06:08:40;13.60;;;8.20;;
65753;SDS011;52488;47.502;18.940;2023-02-12T06:09:43;14.90;;;8.52;;
65753;SDS011;52488;47.502;18.940;2023-02-12T06:10:46;13.77;;;8.05;;
65753;SDS011;52488;47.502;18.940;2023-02-12T06:11:49;15.75;;;8.75;;
65753;SDS011;52488;47.502;18.940;2023-02-12T06:12:53;12.68;;;7.80;;
65753;SDS011;52488;47.502;18.940;2023-02-12T06:13:56;14.23;;;8.13;;
65753;SDS011;52488;47.502;18.940;2023-02-12T06:14:59;14.20;;;8.02;;
65753;SDS011;52488;47.502;18.940;2023-02-12T06:16:04;12.30;;;7.55;;
65753;SDS011;52488;47.502;18.940;2023-02-12T06:17:08;13.80;;;7.87;;
65753;SDS011;52488;47.502;18.940;2023-02-12T06:18:11;13.75;;;8.25;;
65753;SDS011;52488;47.502;18.940;2023-02-12T06:19:15;14.77;;;7.72;;
65753;SDS011;52488;47.502;18.940;2023-02-12T06:20:18;13.85;;;8.15;;
65753;SDS011;52488;47.502;18.940;2023-02-12T06:21:22;16.65;;;8.40;;
65753;SDS011;52488;47.502;18.940;2023-02-12T06:22:27;12.18;;;6.65;;
65753;SDS011;52488;47.502;18.940;2023-02-12T06:23:30;13.93;;;7.93;;
65753;SDS011;52488;47.502;18.940;2023-02-12T06:24:33;13.77;;;8.07;;
65753;SDS011;52488;47.502;18.940;2023-02-12T06:25:36;11.88;;;7.68;;
65753;SDS011;52488;47.502;18.940;2023-02-12T06:26:40;15.63;;;7.97;;
65753;SDS011;52488;47.502;18.940;2023-02-12T06:27:43;15.73;;;8.45;;
65753;SDS011;52488;47.502;18.940;2023-02-12T06:28:47;16.00;;;8.05;;
65753;SDS011;52488;47.502;18.940;2023-02-12T06:29:50;14.18;;;8.80;;
65753;SDS011;52488;47.502;18.940;2023-02-12T06:30:58;13.88;;;8.32;;
65753;SDS011;52488;47.502;18.940;2023-02-12T06:32:01;15.55;;;9.10;;
65753;SDS011;52488;47.502;18.940;2023-02-12T06:33:05;14.07;;;8.70;;
65753;SDS011;52488;47.502;18.940;2023-02-12T06:34:09;14.02;;;8.13;;
65753;SDS011;52488;47.502;18.940;2023-02-12T06:35:15;14.57;;;8.15;;
65753;SDS011;52488;47.502;18.940;2023-02-12T06:36:18;13.95;;;7.68;;
65753;SDS011;52488;47.502;18.940;2023-02-12T06:37:22;14.57;;;8.38;;
65753;SDS011;52488;47.502;18.940;2023-02-12T06:38:25;13.25;;;8.23;;
65753;SDS011;52488;47.502;18.940;2023-02-12T06:39:28;16.27;;;8.73;;
65753;SDS011;52488;47.502;18.940;2023-02-12T06:40:31;12.68;;;7.87;;
65753;SDS011;52488;47.502;18.940;2023-02-12T06:41:34;14.63;;;7.85;;
65753;SDS011;52488;47.502;18.940;2023-02-12T06:42:37;12.43;;;7.75;;
65753;SDS011;52488;47.502;18.940;2023-02-12T06:43:40;11.38;;;7.43;;
65753;SDS011;52488;47.502;18.940;2023-02-12T06:44:44;11.95;;;7.50;;
65753;SDS011;52488;47.502;18.940;2023-02-12T06:45:48;14.02;;;8.10;;
65753;SDS011;52488;47.502;18.940;2023-02-12T06:46:51;13.20;;;7.60;;
65753;SDS011;52488;47.502;18.940;2023-02-12T06:47:55;13.38;;;7.65;;
65753;SDS011;52488;47.502;18.940;2023-02-12T06:48:58;12.35;;;6.90;;
65753;SDS011;52488;47.502;18.940;2023-02-12T06:50:02;11.07;;;6.82;;
65753;SDS011;52488;47.502;18.940;2023-02-12T06:52:14;13.60;;;7.37;;
65753;SDS011;52488;47.502;18.940;2023-02-12T06:53:17;13.40;;;6.97;;
65753;SDS011;52488;47.502;18.940;2023-02-12T06:54:20;13.25;;;7.40;;
65753;SDS011;52488;47.502;18.940;2023-02-12T06:55:23;11.12;;;6.68;;
65753;SDS011;52488;47.502;18.940;2023-02-12T06:56:26;13.48;;;6.60;;
65753;SDS011;52488;47.502;18.940;2023-02-12T06:57:29;11.20;;;6.78;;
65753;SDS011;52488;47.502;18.940;2023-02-12T06:58:32;14.10;;;6.57;;
65753;SDS011;52488;47.502;18.940;2023-02-12T06:59:35;10.90;;;6.60;;
65753;SDS011;52488;47.502;18.940;2023-02-12T07:00:39;10.90;;;6.87;;
65753;SDS011;52488;47.502;18.940;2023-02-12T07:01:42;11.57;;;7.07;;
65753;SDS011;52488;47.502;18.940;2023-02-12T07:02:50;13.05;;;7.25;;
65753;SDS011;52488;47.502;18.940;2023-02-12T07:03:56;12.88;;;7.22;;
65753;SDS011;52488;47.502;18.940;2023-02-12T07:05:01;13.43;;;7.70;;
65753;SDS011;52488;47.502;18.940;2023-02-12T07:06:05;12.50;;;7.47;;
65753;SDS011;52488;47.502;18.940;2023-02-12T07:07:08;13.68;;;7.53;;
65753;SDS011;52488;47.502;18.940;2023-02-12T07:08:11;15.68;;;8.00;;
65753;SDS011;52488;47.502;18.940;2023-02-12T07:09:14;15.27;;;8.68;;
65753;SDS011;52488;47.502;18.940;2023-02-12T07:10:18;13.00;;;8.10;;